createdAt,value
2019-03-30T00:01:49.370Z,27.90
2019-03-30T00:04:19.598Z,27.00
2019-03-30T00:06:49.918Z,24.67
2019-03-30T00:09:20.147Z,24.30
2019-03-30T00:11:50.362Z,24.03
2019-03-30T00:14:20.595Z,26.20
2019-03-30T00:16:50.838Z,27.00
2019-03-30T00:19:34.144Z,28.33
2019-03-30T00:21:53.027Z,29.07
2019-03-30T00:24:23.276Z,27.93
2019-03-30T00:26:53.542Z,29.00
2019-03-30T00:29:23.830Z,27.67
2019-03-30T00:31:54.086Z,26.43
2019-03-30T00:34:24.313Z,24.93
2019-03-30T00:36:54.573Z,25.57
2019-03-30T00:39:24.828Z,24.17
2019-03-30T00:41:55.089Z,23.57
2019-03-30T00:44:25.294Z,20.90
2019-03-30T00:46:55.520Z,21.63
2019-03-30T00:49:25.740Z,21.40
2019-03-30T00:51:55.987Z,21.20
2019-03-30T00:54:26.262Z,20.57
2019-03-30T00:56:56.509Z,21.40
2019-03-30T00:59:26.696Z,21.50
2019-03-30T01:01:56.955Z,19.40
2019-03-30T01:04:27.217Z,20.40
2019-03-30T01:06:57.539Z,19.73
2019-03-30T01:09:27.725Z,20.23
2019-03-30T01:11:57.984Z,19.73
2019-03-30T01:14:28.230Z,19.70
2019-03-30T01:16:58.476Z,20.00
2019-03-30T01:19:28.676Z,19.30
2019-03-30T01:21:58.936Z,19.47
2019-03-30T01:24:29.214Z,20.20
2019-03-30T01:26:59.476Z,18.80
2019-03-30T01:29:29.674Z,20.03
2019-03-30T01:31:59.972Z,19.00
2019-03-30T01:34:30.161Z,18.27
2019-03-30T01:37:00.456Z,19.07
2019-03-30T01:39:30.717Z,19.00
2019-03-30T01:42:01.099Z,17.60
2019-03-30T01:44:31.382Z,18.03
2019-03-30T01:47:01.583Z,18.57
2019-03-30T01:49:31.884Z,17.67
2019-03-30T01:52:02.155Z,18.87
2019-03-30T01:54:32.432Z,18.47
2019-03-30T01:57:02.729Z,17.80
2019-03-30T01:59:32.947Z,17.07
2019-03-30T02:02:03.290Z,18.77
2019-03-30T02:04:33.497Z,17.70
2019-03-30T02:07:03.759Z,18.80
2019-03-30T02:09:33.988Z,17.77
2019-03-30T02:12:04.346Z,16.83
2019-03-30T02:14:34.546Z,17.40
2019-03-30T02:17:04.884Z,18.07
2019-03-30T02:19:35.217Z,17.37
2019-03-30T02:22:06.457Z,17.97
2019-03-30T02:24:36.705Z,17.90
2019-03-30T02:27:07.131Z,17.43
2019-03-30T02:29:37.286Z,16.53
2019-03-30T02:32:07.633Z,16.63
2019-03-30T02:34:37.883Z,18.17
2019-03-30T02:37:08.134Z,18.03
2019-03-30T02:39:38.357Z,17.80
2019-03-30T02:42:08.563Z,17.27
2019-03-30T02:44:38.841Z,18.30
2019-03-30T02:47:09.068Z,17.83
2019-03-30T02:49:39.291Z,17.93
2019-03-30T02:52:09.576Z,16.70
2019-03-30T02:54:39.777Z,19.03
2019-03-30T02:57:10.036Z,19.20
2019-03-30T02:59:40.342Z,19.37
2019-03-30T03:02:10.557Z,19.10
2019-03-30T03:04:40.847Z,17.93
2019-03-30T03:07:11.060Z,18.83
2019-03-30T03:09:41.274Z,18.83
2019-03-30T03:12:11.661Z,17.73
2019-03-30T03:14:41.847Z,18.13
2019-03-30T03:17:12.057Z,18.23
2019-03-30T03:19:42.282Z,17.77
2019-03-30T03:22:12.494Z,19.33
2019-03-30T03:24:42.752Z,17.73
2019-03-30T03:27:12.990Z,18.20
2019-03-30T03:29:43.973Z,19.23
2019-03-30T03:32:15.045Z,18.73
2019-03-30T03:34:45.326Z,18.27
2019-03-30T03:37:15.525Z,18.10
2019-03-30T03:39:45.744Z,17.67
2019-03-30T03:42:15.997Z,18.27
2019-03-30T03:44:46.244Z,18.40
2019-03-30T03:47:16.514Z,18.30
2019-03-30T03:49:46.719Z,17.60
2019-03-30T03:52:17.114Z,18.97
2019-03-30T03:54:47.538Z,19.30
2019-03-30T03:57:19.319Z,18.37
2019-03-30T03:59:52.081Z,17.53
2019-03-30T04:02:25.537Z,16.67
2019-03-30T04:04:58.136Z,17.67
2019-03-30T04:07:31.547Z,17.90
2019-03-30T04:10:03.829Z,18.07
2019-03-30T04:12:37.043Z,18.17
2019-03-30T04:15:07.735Z,18.40
2019-03-30T04:17:38.018Z,17.67
2019-03-30T04:20:09.017Z,17.57
2019-03-30T04:22:39.217Z,16.63
2019-03-30T04:25:09.563Z,16.97
2019-03-30T04:27:39.836Z,16.37
2019-03-30T04:30:10.157Z,16.73
2019-03-30T04:32:40.379Z,16.67
2019-03-30T04:35:10.662Z,16.30
2019-03-30T04:37:40.866Z,16.63
2019-03-30T04:40:11.089Z,17.97
2019-03-30T04:42:41.343Z,19.63
2019-03-30T04:45:13.055Z,19.63
2019-03-30T04:47:43.266Z,17.67
2019-03-30T04:50:13.506Z,17.47
2019-03-30T04:52:43.700Z,17.17
2019-03-30T04:55:13.940Z,18.10
2019-03-30T04:57:44.168Z,18.13
2019-03-30T05:00:14.590Z,17.83
2019-03-30T05:02:44.839Z,17.00
2019-03-30T05:05:15.135Z,17.87
2019-03-30T05:07:45.361Z,17.87
2019-03-30T05:10:15.581Z,16.90
2019-03-30T05:12:45.868Z,17.83
2019-03-30T05:15:17.664Z,17.47
2019-03-30T05:17:48.289Z,17.70
2019-03-30T05:20:18.928Z,18.40
2019-03-30T05:22:51.351Z,16.90
2019-03-30T05:25:21.046Z,17.33
2019-03-30T05:27:51.271Z,17.13
2019-03-30T05:30:21.548Z,15.30
2019-03-30T05:33:04.990Z,16.00
2019-03-30T05:35:23.655Z,16.10
2019-03-30T05:37:53.891Z,15.83
2019-03-30T05:40:24.195Z,15.40
2019-03-30T05:43:15.115Z,15.77
2019-03-30T05:45:45.343Z,16.90
2019-03-30T05:48:15.579Z,15.97
2019-03-30T05:50:45.773Z,15.37
2019-03-30T05:53:16.019Z,15.33
2019-03-30T05:55:46.245Z,15.63
2019-03-30T05:58:16.471Z,16.70
2019-03-30T06:00:46.724Z,18.20
2019-03-30T06:03:17.004Z,18.20
2019-03-30T06:05:47.202Z,18.03
2019-03-30T06:08:17.960Z,17.07
2019-03-30T06:10:48.168Z,17.50
2019-03-30T06:13:18.397Z,15.77
2019-03-30T06:15:48.655Z,14.87
2019-03-30T06:18:18.900Z,14.93
2019-03-30T06:20:49.116Z,17.90
2019-03-30T06:23:19.371Z,19.60
2019-03-30T06:25:49.623Z,17.07
2019-03-30T06:28:19.864Z,16.10
2019-03-30T06:30:50.110Z,19.50
2019-03-30T06:33:20.328Z,16.17
2019-03-30T06:35:50.566Z,17.20
2019-03-30T06:38:20.832Z,13.97
2019-03-30T06:40:51.312Z,15.00
2019-03-30T06:43:23.512Z,15.10
2019-03-30T06:45:53.751Z,15.53
2019-03-30T06:48:23.972Z,14.63
2019-03-30T06:50:54.229Z,13.67
2019-03-30T06:53:24.452Z,12.57
2019-03-30T06:55:54.672Z,15.07
2019-03-30T06:58:24.902Z,14.93
2019-03-30T07:00:56.324Z,14.30
2019-03-30T07:03:26.590Z,15.40
2019-03-30T07:05:57.063Z,14.40
2019-03-30T07:08:30.039Z,15.03
2019-03-30T07:11:03.223Z,15.00
2019-03-30T07:13:36.666Z,14.20
2019-03-30T07:16:07.767Z,14.30
2019-03-30T07:18:40.429Z,14.40
2019-03-30T07:21:10.699Z,16.10
2019-03-30T07:23:40.971Z,13.77
2019-03-30T07:26:11.634Z,12.27
2019-03-30T07:28:41.973Z,12.77
2019-03-30T07:31:12.188Z,12.73
2019-03-30T07:33:42.403Z,14.27
2019-03-30T07:36:12.635Z,13.50
2019-03-30T07:38:42.861Z,12.20
2019-03-30T07:41:13.128Z,12.10
2019-03-30T07:43:44.501Z,12.43
2019-03-30T07:46:14.799Z,12.40
2019-03-30T07:48:45.855Z,12.80
2019-03-30T07:51:16.074Z,12.13
2019-03-30T07:53:46.960Z,12.70
2019-03-30T07:56:17.231Z,12.60
2019-03-30T07:58:47.479Z,11.80
2019-03-30T08:01:17.727Z,13.00
2019-03-30T08:03:47.976Z,14.27
2019-03-30T08:06:18.237Z,13.63
2019-03-30T08:08:48.438Z,13.73
2019-03-30T08:11:18.692Z,17.13
2019-03-30T08:13:48.874Z,15.00
2019-03-30T08:16:19.100Z,14.13
2019-03-30T08:18:49.321Z,13.43
2019-03-30T08:21:19.556Z,12.83
2019-03-30T08:23:49.788Z,14.33
2019-03-30T08:26:19.999Z,15.40
2019-03-30T08:28:50.298Z,16.83
2019-03-30T08:31:20.507Z,17.07
2019-03-30T08:33:50.764Z,18.23
2019-03-30T08:36:21.004Z,22.23
2019-03-30T08:38:51.225Z,24.70
2019-03-30T08:41:21.491Z,20.60
2019-03-30T08:43:52.024Z,18.10
2019-03-30T08:46:22.397Z,18.67
2019-03-30T08:48:52.643Z,16.50
2019-03-30T08:51:22.874Z,14.20
2019-03-30T08:53:54.917Z,14.83
2019-03-30T08:56:27.893Z,17.00
2019-03-30T08:58:56.960Z,18.13
2019-03-30T09:01:27.240Z,16.63
2019-03-30T09:03:58.351Z,15.47
2019-03-30T09:06:28.603Z,14.40
2019-03-30T09:08:58.828Z,15.00
2019-03-30T09:11:29.084Z,19.43
2019-03-30T09:13:59.299Z,20.60
2019-03-30T09:16:29.530Z,20.07
2019-03-30T09:18:59.734Z,17.97
2019-03-30T09:21:29.992Z,17.97
2019-03-30T09:24:09.546Z,20.60
2019-03-30T09:26:33.533Z,17.13
2019-03-30T09:29:03.827Z,16.43
2019-03-30T09:31:34.059Z,15.83
2019-03-30T09:34:04.493Z,16.83
2019-03-30T09:36:34.846Z,17.37
2019-03-30T09:39:07.167Z,16.60
2019-03-30T09:41:37.365Z,17.43
2019-03-30T09:44:07.619Z,18.43
2019-03-30T09:46:37.853Z,18.43
2019-03-30T09:49:08.085Z,18.83
2019-03-30T09:51:38.325Z,21.80
2019-03-30T09:54:22.834Z,21.83
2019-03-30T09:56:40.637Z,20.87
2019-03-30T09:59:10.953Z,21.97
2019-03-30T10:01:43.691Z,26.17
2019-03-30T10:04:14.034Z,24.37
2019-03-30T10:06:47.330Z,22.97
2019-03-30T10:09:17.538Z,23.30
2019-03-30T10:11:47.737Z,21.43
2019-03-30T10:14:18.693Z,21.50
2019-03-30T10:16:48.925Z,24.20
2019-03-30T10:19:19.134Z,22.00
2019-03-30T10:21:49.357Z,22.57
2019-03-30T10:24:19.630Z,25.73
2019-03-30T10:26:49.836Z,22.90
2019-03-30T10:29:20.063Z,19.77
2019-03-30T10:31:50.322Z,20.77
2019-03-30T10:34:20.515Z,20.53
2019-03-30T10:36:50.792Z,18.37
2019-03-30T10:39:21.018Z,20.70
2019-03-30T10:41:51.289Z,19.63
2019-03-30T10:44:21.507Z,18.77
2019-03-30T10:46:51.732Z,17.73
2019-03-30T10:49:22.031Z,17.20
2019-03-30T10:51:54.365Z,17.00
2019-03-30T10:54:24.239Z,17.10
2019-03-30T10:56:54.477Z,17.80
2019-03-30T10:59:24.748Z,18.00
2019-03-30T11:01:55.007Z,17.10
2019-03-30T11:04:25.587Z,18.47
2019-03-30T11:06:56.246Z,17.10
2019-03-30T11:09:26.711Z,17.33
2019-03-30T11:11:56.999Z,16.23
2019-03-30T11:14:27.310Z,16.57
2019-03-30T11:16:59.469Z,17.30
2019-03-30T11:19:29.662Z,16.27
2019-03-30T11:22:03.317Z,18.37
2019-03-30T11:24:34.137Z,17.37
2019-03-30T11:27:04.393Z,17.23
2019-03-30T11:29:34.668Z,18.40
2019-03-30T11:32:04.923Z,21.00
2019-03-30T11:34:35.219Z,20.97
2019-03-30T11:37:05.590Z,18.00
2019-03-30T11:39:35.838Z,16.60
2019-03-30T11:42:06.118Z,23.67
2019-03-30T11:44:36.394Z,18.47
2019-03-30T11:47:07.673Z,22.60
2019-03-30T11:49:37.893Z,18.23
2019-03-30T11:52:08.152Z,18.93
2019-03-30T11:54:38.393Z,20.03
2019-03-30T11:57:10.032Z,17.50
2019-03-30T11:59:40.367Z,19.10
2019-03-30T12:02:10.639Z,17.97
2019-03-30T12:04:40.908Z,19.07
2019-03-30T12:07:11.219Z,19.80
2019-03-30T12:09:41.450Z,17.83
2019-03-30T12:12:11.667Z,16.47
2019-03-30T12:14:43.549Z,17.17
2019-03-30T12:17:13.817Z,18.77
2019-03-30T12:19:44.017Z,18.83
2019-03-30T12:22:14.235Z,18.27
2019-03-30T12:24:44.555Z,19.10
2019-03-30T12:27:14.847Z,19.97
2019-03-30T12:29:46.221Z,19.00
2019-03-30T12:32:16.527Z,19.33
2019-03-30T12:34:46.950Z,16.93
2019-03-30T12:37:17.195Z,17.80
2019-03-30T12:39:47.477Z,17.37
2019-03-30T12:42:17.682Z,18.13
2019-03-30T12:44:50.724Z,18.20
2019-03-30T12:47:20.984Z,19.23
2019-03-30T12:49:51.412Z,18.17
2019-03-30T12:52:21.687Z,18.37
2019-03-30T12:54:51.903Z,18.17
2019-03-30T12:57:22.139Z,17.53
2019-03-30T12:59:52.566Z,17.73
2019-03-30T13:02:25.551Z,19.87
2019-03-30T13:04:55.842Z,19.03
2019-03-30T13:07:26.140Z,18.97
2019-03-30T13:09:57.419Z,19.37
2019-03-30T13:12:27.649Z,19.00
2019-03-30T13:14:58.043Z,19.83
2019-03-30T13:17:30.711Z,18.90
2019-03-30T13:20:00.960Z,18.37
2019-03-30T13:22:31.223Z,20.50
2019-03-30T13:25:01.487Z,18.27
2019-03-30T13:27:32.076Z,17.47
2019-03-30T13:30:05.342Z,22.70
2019-03-30T13:32:36.708Z,20.00
2019-03-30T13:35:07.047Z,19.43
2019-03-30T13:37:37.775Z,19.13
2019-03-30T13:40:09.219Z,19.40
2019-03-30T13:42:39.429Z,20.70
2019-03-30T13:45:09.807Z,19.13
2019-03-30T13:47:40.047Z,19.93
2019-03-30T13:50:11.196Z,20.20
2019-03-30T13:52:42.687Z,20.03
2019-03-30T13:55:13.005Z,19.90
2019-03-30T13:57:43.290Z,17.87
2019-03-30T14:00:16.519Z,19.00
2019-03-30T14:02:47.358Z,18.70
2019-03-30T14:05:17.624Z,18.97
2019-03-30T14:07:47.844Z,19.40
2019-03-30T14:10:18.413Z,20.23
2019-03-30T14:12:48.672Z,20.80
2019-03-30T14:15:18.900Z,20.20
2019-03-30T14:17:49.196Z,18.90
2019-03-30T14:20:19.371Z,19.87
2019-03-30T14:22:49.670Z,20.40
2019-03-30T14:25:20.018Z,21.17
2019-03-30T14:27:51.250Z,20.37
2019-03-30T14:30:21.579Z,21.25
2019-03-30T14:32:51.888Z,20.83
2019-03-30T14:35:22.200Z,21.77
2019-03-30T14:37:53.097Z,20.23
2019-03-30T14:40:24.509Z,21.00
2019-03-30T14:42:54.766Z,22.03
2019-03-30T14:45:25.150Z,22.30
2019-03-30T14:47:57.869Z,21.93
2019-03-30T14:50:27.337Z,23.33
2019-03-30T14:52:57.912Z,24.60
2019-03-30T14:55:28.803Z,24.53
2019-03-30T14:57:59.073Z,21.83
2019-03-30T15:00:29.498Z,23.63
2019-03-30T15:03:00.202Z,23.53
2019-03-30T15:05:30.526Z,24.63
2019-03-30T15:08:00.819Z,22.97
2019-03-30T15:10:31.072Z,23.20
2019-03-30T15:13:01.326Z,24.33
2019-03-30T15:15:31.683Z,25.73
2019-03-30T15:18:01.980Z,22.60
2019-03-30T15:20:32.193Z,19.43
2019-03-30T15:23:02.491Z,20.30
2019-03-30T15:25:32.735Z,20.27
2019-03-30T15:28:02.978Z,18.73
2019-03-30T15:30:33.264Z,21.20
2019-03-30T15:33:03.688Z,19.53
2019-03-30T15:35:34.466Z,17.37
2019-03-30T15:38:04.757Z,18.10
2019-03-30T15:40:35.100Z,18.27
2019-03-30T15:43:05.443Z,18.50
2019-03-30T15:45:35.692Z,19.20
2019-03-30T15:48:06.269Z,18.50
2019-03-30T15:50:36.536Z,19.53
2019-03-30T15:53:06.824Z,23.00
2019-03-30T15:55:37.245Z,23.37
2019-03-30T15:58:07.701Z,24.43
2019-03-30T16:00:37.977Z,24.83
2019-03-30T16:03:08.383Z,35.20
2019-03-30T16:05:38.665Z,34.30
2019-03-30T16:08:08.939Z,26.27
2019-03-30T16:10:39.260Z,28.60
2019-03-30T16:13:09.870Z,27.80
2019-03-30T16:15:40.191Z,25.47
2019-03-30T16:18:10.504Z,29.80
2019-03-30T16:20:40.769Z,29.87
2019-03-30T16:23:11.027Z,30.70
2019-03-30T16:25:41.359Z,30.63
2019-03-30T16:28:11.628Z,31.27
2019-03-30T16:30:41.928Z,31.27
2019-03-30T16:33:12.227Z,30.80
2019-03-30T16:35:42.503Z,30.93
2019-03-30T16:38:12.740Z,31.07
2019-03-30T16:40:43.116Z,31.30
2019-03-30T16:43:13.386Z,33.33
2019-03-30T16:45:43.595Z,33.50
2019-03-30T16:48:14.828Z,34.40
2019-03-30T16:50:45.248Z,34.70
2019-03-30T16:53:15.499Z,33.10
2019-03-30T16:55:45.776Z,36.80
2019-03-30T16:58:15.991Z,33.57
2019-03-30T17:00:56.312Z,35.00
2019-03-30T17:03:18.207Z,36.43
2019-03-30T17:05:48.457Z,37.20
2019-03-30T17:08:18.690Z,36.27
2019-03-30T17:10:49.129Z,35.83
2019-03-30T17:13:19.717Z,35.57
2019-03-30T17:15:50.495Z,36.43
2019-03-30T17:18:20.863Z,42.60
2019-03-30T17:20:51.125Z,42.73
2019-03-30T17:23:21.552Z,40.70
2019-03-30T17:25:51.852Z,38.17
2019-03-30T17:28:22.301Z,37.87
2019-03-30T17:30:53.850Z,36.93
2019-03-30T17:33:24.700Z,41.90
2019-03-30T17:35:54.945Z,42.77
2019-03-30T17:38:26.326Z,39.07
2019-03-30T17:40:56.580Z,40.83
2019-03-30T17:43:27.364Z,40.37
2019-03-30T17:45:57.885Z,42.43
2019-03-30T17:48:30.646Z,41.77
2019-03-30T17:51:01.051Z,40.17
2019-03-30T17:53:31.563Z,40.90
2019-03-30T17:56:02.182Z,40.77
2019-03-30T17:58:32.981Z,47.43
2019-03-30T18:01:03.702Z,51.37
2019-03-30T18:03:33.983Z,50.60
2019-03-30T18:06:04.389Z,51.73
2019-03-30T18:08:34.615Z,57.90
2019-03-30T18:11:05.639Z,69.87
2019-03-30T18:13:37.264Z,96.17
2019-03-30T18:16:10.310Z,86.53
2019-03-30T18:18:40.608Z,71.57
2019-03-30T18:21:10.969Z,73.27
2019-03-30T18:23:42.015Z,77.03
2019-03-30T18:26:12.336Z,72.70
2019-03-30T18:28:42.752Z,67.17
2019-03-30T18:31:13.118Z,71.97
2019-03-30T18:33:44.879Z,80.53
2019-03-30T18:36:17.950Z,86.20
2019-03-30T18:38:50.375Z,82.97
2019-03-30T18:41:21.142Z,72.63
2019-03-30T18:43:51.733Z,70.70
2019-03-30T18:46:22.031Z,68.40
2019-03-30T18:48:52.387Z,67.47
2019-03-30T18:51:24.085Z,80.90
2019-03-30T18:53:56.630Z,86.40
2019-03-30T18:56:28.005Z,88.33
2019-03-30T18:58:58.435Z,85.60
2019-03-30T19:01:30.074Z,69.83
2019-03-30T19:04:00.543Z,72.83
2019-03-30T19:06:31.232Z,69.83
2019-03-30T19:09:04.129Z,72.90
2019-03-30T19:11:34.363Z,65.17
2019-03-30T19:14:04.993Z,74.60
2019-03-30T19:16:35.501Z,94.80
2019-03-30T19:19:05.801Z,111.83
2019-03-30T19:21:36.690Z,93.17
2019-03-30T19:24:06.956Z,86.63
2019-03-30T19:26:37.427Z,83.30
2019-03-30T19:29:07.897Z,75.10
2019-03-30T19:31:38.205Z,71.13
2019-03-30T19:34:08.541Z,75.90
2019-03-30T19:36:39.199Z,78.33
2019-03-30T19:39:10.927Z,91.00
2019-03-30T19:41:41.485Z,91.73
2019-03-30T19:44:13.138Z,86.63
2019-03-30T19:46:43.710Z,81.63
2019-03-30T19:49:14.073Z,81.57
2019-03-30T19:51:44.323Z,86.37
2019-03-30T19:54:14.871Z,104.90
2019-03-30T19:56:45.361Z,105.73
2019-03-30T19:59:15.752Z,93.53
2019-03-30T20:01:47.711Z,79.90
2019-03-30T20:04:17.943Z,81.27
2019-03-30T20:06:48.463Z,84.50
2019-03-30T20:09:20.791Z,91.20
2019-03-30T20:11:51.115Z,87.97
2019-03-30T20:14:21.508Z,88.50
2019-03-30T20:16:52.524Z,88.10
2019-03-30T20:19:22.807Z,93.53
2019-03-30T20:21:53.136Z,88.77
2019-03-30T20:24:23.625Z,87.53
2019-03-30T20:26:53.915Z,89.07
2019-03-30T20:29:25.516Z,92.10
2019-03-30T20:31:56.107Z,94.20
2019-03-30T20:34:27.502Z,98.93
2019-03-30T20:36:57.981Z,92.73
2019-03-30T20:39:28.196Z,95.97
2019-03-30T20:41:58.502Z,100.13
2019-03-30T20:44:28.781Z,97.83
2019-03-30T20:46:59.089Z,97.77
2019-03-30T20:49:29.369Z,95.13
2019-03-30T20:52:01.844Z,98.70
2019-03-30T20:54:31.660Z,112.03
2019-03-30T20:57:01.928Z,108.77
2019-03-30T20:59:39.994Z,104.23
2019-03-30T21:02:09.352Z,102.63
2019-03-30T21:04:40.297Z,101.47
2019-03-30T21:07:10.543Z,98.87
2019-03-30T21:09:40.947Z,102.43
2019-03-30T21:12:11.222Z,110.20
2019-03-30T21:14:41.478Z,110.43
2019-03-30T21:17:11.734Z,111.67
2019-03-30T21:19:42.131Z,110.83
2019-03-30T21:22:19.776Z,107.30
2019-03-30T21:24:50.137Z,105.87
2019-03-30T21:27:22.220Z,106.83
2019-03-30T21:29:54.829Z,105.03
2019-03-30T21:32:27.867Z,103.17
2019-03-30T21:34:58.487Z,98.87
2019-03-30T21:37:28.722Z,97.67
2019-03-30T21:39:59.630Z,98.63
2019-03-30T21:42:29.873Z,101.00
2019-03-30T21:45:00.497Z,102.83
2019-03-30T21:47:30.950Z,101.27
2019-03-30T21:50:02.060Z,105.67
2019-03-30T21:52:32.272Z,100.50
2019-03-30T21:55:03.053Z,100.60
2019-03-30T21:57:33.292Z,99.97
2019-03-30T22:00:10.417Z,98.53
2019-03-30T22:02:35.465Z,98.97
2019-03-30T22:05:06.267Z,98.83
2019-03-30T22:07:37.756Z,96.53
2019-03-30T22:10:10.001Z,96.77
2019-03-30T22:12:42.606Z,97.93
2019-03-30T22:15:14.424Z,99.40
2019-03-30T22:17:44.659Z,99.77
2019-03-30T22:20:14.891Z,95.30
2019-03-30T22:22:46.160Z,97.20
2019-03-30T22:25:16.375Z,100.40
2019-03-30T22:27:46.613Z,102.23
2019-03-30T22:30:24.668Z,104.50
2019-03-30T22:32:48.957Z,104.60
2019-03-30T22:35:19.230Z,110.30
2019-03-30T22:37:49.501Z,108.37
2019-03-30T22:40:19.765Z,114.07
2019-03-30T22:42:49.979Z,113.77
2019-03-30T22:45:20.247Z,113.67
2019-03-30T22:47:50.510Z,115.73
2019-03-30T22:50:20.792Z,114.90
2019-03-30T22:52:51.043Z,113.57
2019-03-30T22:55:21.333Z,115.10
2019-03-30T22:57:51.663Z,111.97
2019-03-30T23:00:39.635Z,111.70
2019-03-30T23:03:10.028Z,112.30
2019-03-30T23:05:40.239Z,113.03
2019-03-30T23:08:10.583Z,115.27
2019-03-30T23:10:40.797Z,114.63
2019-03-30T23:13:11.019Z,112.97
2019-03-30T23:15:41.287Z,109.73
2019-03-30T23:18:11.503Z,113.67
2019-03-30T23:20:41.764Z,111.67
2019-03-30T23:23:12.003Z,112.70
2019-03-30T23:25:42.233Z,107.40
2019-03-30T23:28:12.479Z,106.23
2019-03-30T23:30:53.431Z,105.23
2019-03-30T23:33:14.589Z,108.40
2019-03-30T23:35:44.823Z,109.57
2019-03-30T23:38:15.091Z,108.80
2019-03-30T23:40:45.311Z,107.60
2019-03-30T23:43:15.584Z,108.07
2019-03-30T23:45:45.792Z,108.43
2019-03-30T23:48:16.031Z,109.43
2019-03-30T23:50:46.288Z,109.93
2019-03-30T23:53:16.525Z,110.23
2019-03-30T23:55:46.739Z,112.97
2019-03-30T23:58:16.987Z,112.93
